Taos, NM

11:08 PM MDT on August 30, 2016 (GMT -0600)
Blueberry Hill | | Change Station

Elev 7064 ft 36.43 °N, 105.60 °W | Updated 1 minute ago

Scattered Clouds
Scattered Clouds
60.3 °F
Feels Like 60.3 °F
N
4.2
Wind Variable Wind from East

Today
High -- | Low -- °F
--% Chance of Precip.
Yesterday
High -- | Low -- °F
Precip. -- in
Pressure 30.41 in
Visibility 10.0 miles
Clouds Few 9500 ft
Scattered Clouds 11000 ft
Dew Point 48 °F
Humidity 63%
Rainfall 0.02 in
Snow Depth Not available.
6:32 AM 7:32 PM
Waning Crescent, 1% visible
METAR KSKX 310455Z AUTO 12014KT 10SM FEW095 SCT110 17/07 A3041 RMK AO1
Pressure 30.41 in
Visibility 10.0 miles
Clouds Few 9500 ft
Scattered Clouds 11000 ft
Dew Point 48 °F
Humidity 63%
Rainfall 0.02 in
Snow Depth Not available.
6:32 AM 7:32 PM
Waning Crescent, 1% visible
METAR KSKX 310455Z AUTO 12014KT 10SM FEW095 SCT110 17/07 A3041 RMK AO1

10-Day Weather Forecast

Almanac

Astronomy

Aug. 30, 2016 Rise Set
Actual Time
Civil Twilight
Nautical Twilight
Astronomical Twilight
Moon
Length of Visible Light
Length of Day
Tomorrow will be .
, % of the Moon is Illuminated

Today's Extremes

State Highs State Lows

Community

WunderPhotos

Upload Photos

1,936,040 photos uploaded!

WunderBlog® & News

Nearby

Air Quality

  Air Quality AQ Index Pollutant
Not available.

Snow Depth

Station Depth Elevation

Earthquake Activity

City Distance Mag. Time & Date
Minimum magnitude displayed is 2.5.

Coastal Water Temperatures

Place Temperature

Stations

Nearby Weather Stations

Station Location Temp. Windchill Dew Point Humidity Wind Precip. Elev Updated Type
                   

Watches & Warnings

There are currently no watches in effect.